createdAt,value
2018-09-27T00:01:17.932Z,3.70
2018-09-27T00:03:47.356Z,2.60
2018-09-27T00:06:16.688Z,3.73
2018-09-27T00:08:46.131Z,2.80
2018-09-27T00:11:15.871Z,2.87
2018-09-27T00:13:45.172Z,3.17
2018-09-27T00:16:14.537Z,3.83
2018-09-27T00:18:43.863Z,3.00
2018-09-27T00:21:13.289Z,3.53
2018-09-27T00:23:42.667Z,3.40
2018-09-27T00:26:12.196Z,3.17
2018-09-27T00:28:41.539Z,2.10
2018-09-27T00:31:11.508Z,3.53
2018-09-27T00:33:40.920Z,3.30
2018-09-27T00:36:10.307Z,3.70
2018-09-27T00:38:39.689Z,3.70
2018-09-27T00:41:09.209Z,3.10
2018-09-27T00:43:38.670Z,4.00
2018-09-27T00:46:08.057Z,4.20
2018-09-27T00:48:37.584Z,2.93
2018-09-27T00:51:07.078Z,2.90
2018-09-27T00:53:36.412Z,3.10
2018-09-27T00:56:05.812Z,3.60
2018-09-27T00:58:35.195Z,2.73
2018-09-27T01:01:04.547Z,4.00
2018-09-27T01:03:33.878Z,3.60
2018-09-27T01:06:03.162Z,4.30
2018-09-27T01:08:32.569Z,3.30
2018-09-27T01:11:01.878Z,4.90
2018-09-27T01:13:31.206Z,3.20
2018-09-27T01:16:00.605Z,3.10
2018-09-27T01:18:30.001Z,3.50
2018-09-27T01:20:59.433Z,2.97
2018-09-27T01:23:28.771Z,3.73
2018-09-27T01:25:58.084Z,3.30
2018-09-27T01:28:27.385Z,3.33
2018-09-27T01:30:56.826Z,4.10
2018-09-27T01:33:26.180Z,4.20
2018-09-27T01:35:55.510Z,3.97
2018-09-27T01:38:24.850Z,3.90
2018-09-27T01:40:54.237Z,3.53
2018-09-27T01:43:23.606Z,4.43
2018-09-27T01:45:52.920Z,3.97
2018-09-27T01:48:22.296Z,3.27
2018-09-27T01:50:51.832Z,4.00
2018-09-27T01:53:21.195Z,3.63
2018-09-27T01:55:50.493Z,3.50
2018-09-27T01:58:19.851Z,4.37
2018-09-27T02:00:49.204Z,3.50
2018-09-27T02:03:18.781Z,3.57
2018-09-27T02:05:48.133Z,4.37
2018-09-27T02:08:17.516Z,3.67
2018-09-27T02:10:46.855Z,3.80
2018-09-27T02:13:16.295Z,4.27
2018-09-27T02:15:45.697Z,3.53
2018-09-27T02:18:15.306Z,3.70
2018-09-27T02:20:44.892Z,3.67
2018-09-27T02:23:14.295Z,3.53
2018-09-27T02:25:43.630Z,3.10
2018-09-27T02:28:13.119Z,3.00
2018-09-27T02:30:42.452Z,3.80
2018-09-27T02:33:11.919Z,4.13
2018-09-27T02:35:41.445Z,3.00
2018-09-27T02:38:10.833Z,5.07
2018-09-27T02:40:40.132Z,3.70
2018-09-27T02:43:09.458Z,4.53
2018-09-27T02:45:38.732Z,3.87
2018-09-27T02:48:08.063Z,3.40
2018-09-27T02:50:38.223Z,3.00
2018-09-27T02:53:07.613Z,3.90
2018-09-27T02:55:36.925Z,3.10
2018-09-27T02:58:06.480Z,3.50
2018-09-27T03:00:35.953Z,3.40
2018-09-27T03:03:05.283Z,3.57
2018-09-27T03:05:35.237Z,4.07
2018-09-27T03:08:04.557Z,3.40
2018-09-27T03:10:33.984Z,3.90
2018-09-27T03:13:03.288Z,3.33
2018-09-27T03:15:32.789Z,3.60
2018-09-27T03:18:02.107Z,3.67
2018-09-27T03:20:31.418Z,3.00
2018-09-27T03:23:00.910Z,4.10
2018-09-27T03:25:30.517Z,3.37
2018-09-27T03:27:59.853Z,3.57
2018-09-27T03:30:29.173Z,3.30
2018-09-27T03:32:58.597Z,3.40
2018-09-27T03:35:28.211Z,3.63
2018-09-27T03:37:57.710Z,2.93
2018-09-27T03:40:27.072Z,3.47
2018-09-27T03:42:56.384Z,3.77
2018-09-27T03:45:25.732Z,3.50
2018-09-27T03:47:55.218Z,3.30
2018-09-27T03:50:24.796Z,3.13
2018-09-27T03:52:54.208Z,3.20
2018-09-27T03:55:23.528Z,3.83
2018-09-27T03:57:52.846Z,4.90
2018-09-27T04:00:22.163Z,6.70
2018-09-27T04:02:51.538Z,5.17
2018-09-27T04:05:20.951Z,7.23
2018-09-27T04:07:50.370Z,5.10
2018-09-27T04:10:19.672Z,5.03
2018-09-27T04:12:48.997Z,4.07
2018-09-27T04:15:18.317Z,4.80
2018-09-27T04:17:47.742Z,5.37
2018-09-27T04:20:17.079Z,3.97
2018-09-27T04:22:46.455Z,6.33
2018-09-27T04:25:15.772Z,6.17
2018-09-27T04:27:45.133Z,6.20
2018-09-27T04:30:14.494Z,4.23
2018-09-27T04:32:43.788Z,4.33
2018-09-27T04:35:13.184Z,3.40
2018-09-27T04:37:42.581Z,4.03
2018-09-27T04:40:11.968Z,4.20
2018-09-27T04:42:41.427Z,3.60
2018-09-27T04:45:10.741Z,4.63
2018-09-27T04:47:40.069Z,3.30
2018-09-27T04:50:09.419Z,3.97
2018-09-27T04:52:38.741Z,4.03
2018-09-27T04:55:08.109Z,4.70
2018-09-27T04:57:38.481Z,4.93
2018-09-27T05:00:07.943Z,5.00
2018-09-27T05:02:37.246Z,4.50
2018-09-27T05:05:06.672Z,4.37
2018-09-27T05:07:36.117Z,3.77
2018-09-27T05:10:05.830Z,4.50
2018-09-27T05:12:35.322Z,3.87
2018-09-27T05:15:04.697Z,3.40
2018-09-27T05:17:34.246Z,4.00
2018-09-27T05:20:03.575Z,4.57
2018-09-27T05:22:32.955Z,5.03
2018-09-27T05:25:02.284Z,4.70
2018-09-27T05:27:31.684Z,4.40
2018-09-27T05:30:01.111Z,4.40
2018-09-27T05:32:30.429Z,4.67
2018-09-27T05:34:59.743Z,4.40
2018-09-27T05:37:29.272Z,4.07
2018-09-27T05:39:58.868Z,4.60
2018-09-27T05:42:28.346Z,4.83
2018-09-27T05:44:57.828Z,4.40
2018-09-27T05:47:27.215Z,4.27
2018-09-27T05:49:56.655Z,4.57
2018-09-27T05:52:25.985Z,4.30
2018-09-27T05:54:55.498Z,4.67
2018-09-27T05:57:24.938Z,4.27
2018-09-27T05:59:54.422Z,4.23
2018-09-27T06:02:23.742Z,3.90
2018-09-27T06:04:53.079Z,4.33
2018-09-27T06:07:23.030Z,4.37
2018-09-27T06:09:52.398Z,4.40
2018-09-27T06:12:21.817Z,3.60
2018-09-27T06:14:51.165Z,3.87
2018-09-27T06:17:20.519Z,3.80
2018-09-27T06:19:50.761Z,4.47
2018-09-27T06:22:20.249Z,3.37
2018-09-27T06:24:49.628Z,3.90
2018-09-27T06:27:19.259Z,4.33
2018-09-27T06:29:49.015Z,4.40
2018-09-27T06:32:19.050Z,4.33
2018-09-27T06:34:48.439Z,3.57
2018-09-27T06:37:17.783Z,3.20
2018-09-27T06:39:47.179Z,4.27
2018-09-27T06:42:16.505Z,4.10
2018-09-27T06:44:45.983Z,4.10
2018-09-27T06:47:15.298Z,5.43
2018-09-27T06:49:44.686Z,4.07
2018-09-27T06:52:14.075Z,7.00
2018-09-27T06:54:43.799Z,10.50
2018-09-27T06:57:13.319Z,6.03
2018-09-27T06:59:42.755Z,7.53
2018-09-27T07:02:12.225Z,8.47
2018-09-27T07:04:41.630Z,8.10
2018-09-27T07:07:11.152Z,7.30
2018-09-27T07:09:40.476Z,9.70
2018-09-27T07:12:10.600Z,9.87
2018-09-27T07:14:39.990Z,5.90
2018-09-27T07:17:09.651Z,9.03
2018-09-27T07:19:39.131Z,9.07
2018-09-27T07:22:08.558Z,10.20
2018-09-27T07:24:38.248Z,10.93
2018-09-27T07:27:07.949Z,5.83
2018-09-27T07:29:37.500Z,4.87
2018-09-27T07:32:07.041Z,4.10
2018-09-27T07:34:36.387Z,6.07
2018-09-27T07:37:06.152Z,4.47
2018-09-27T07:39:35.704Z,4.17
2018-09-27T07:42:05.179Z,4.90
2018-09-27T07:44:34.763Z,5.07
2018-09-27T07:47:04.185Z,4.50
2018-09-27T07:49:33.550Z,4.50
2018-09-27T07:52:03.051Z,4.70
2018-09-27T07:54:32.561Z,4.63
2018-09-27T07:57:01.862Z,4.20
2018-09-27T07:59:31.605Z,4.80
2018-09-27T08:02:01.067Z,4.60
2018-09-27T08:04:30.413Z,4.40
2018-09-27T08:06:59.919Z,4.93
2018-09-27T08:09:29.944Z,5.47
2018-09-27T08:11:59.496Z,5.57
2018-09-27T08:14:28.874Z,5.00
2018-09-27T08:16:58.411Z,5.30
2018-09-27T08:19:27.718Z,4.60
2018-09-27T08:21:57.276Z,5.43
2018-09-27T08:24:26.654Z,5.00
2018-09-27T08:26:56.068Z,5.37
2018-09-27T08:29:25.429Z,4.47
2018-09-27T08:31:54.840Z,4.93
2018-09-27T08:34:24.331Z,4.30
2018-09-27T08:36:53.780Z,4.00
2018-09-27T08:39:23.158Z,5.17
2018-09-27T08:41:52.680Z,4.40
2018-09-27T08:44:22.085Z,5.27
2018-09-27T08:46:51.484Z,4.07
2018-09-27T08:49:20.940Z,3.80
2018-09-27T08:51:50.337Z,3.60
2018-09-27T08:54:19.814Z,4.10
2018-09-27T08:56:49.170Z,4.20
2018-09-27T08:59:18.731Z,4.70
2018-09-27T09:01:48.183Z,3.87
2018-09-27T09:04:17.606Z,3.97
2018-09-27T09:06:47.027Z,4.43
2018-09-27T09:09:17.145Z,3.90
2018-09-27T09:11:46.617Z,3.37
2018-09-27T09:14:16.997Z,3.60
2018-09-27T09:16:46.322Z,3.53
2018-09-27T09:19:15.880Z,4.00
2018-09-27T09:21:45.325Z,3.50
2018-09-27T09:24:14.839Z,4.23
2018-09-27T09:26:44.349Z,3.30
2018-09-27T09:29:13.695Z,2.90
2018-09-27T09:31:43.064Z,2.57
2018-09-27T09:34:12.471Z,2.60
2018-09-27T09:36:42.072Z,3.13
2018-09-27T09:39:11.528Z,3.80
2018-09-27T09:41:41.414Z,5.10
2018-09-27T09:44:10.803Z,3.10
2018-09-27T09:46:40.227Z,3.13
2018-09-27T09:49:09.868Z,3.00
2018-09-27T09:51:39.208Z,2.70
2018-09-27T09:54:08.700Z,2.57
2018-09-27T09:56:38.096Z,2.77
2018-09-27T09:59:07.410Z,3.60
2018-09-27T10:01:36.956Z,3.13
2018-09-27T10:04:06.517Z,3.80
2018-09-27T10:06:35.961Z,3.10
2018-09-27T10:09:07.429Z,3.67
2018-09-27T10:11:36.766Z,3.40
2018-09-27T10:14:06.118Z,3.20
2018-09-27T10:16:35.882Z,3.13
2018-09-27T10:19:05.240Z,3.10
2018-09-27T10:21:34.650Z,3.80
2018-09-27T10:24:04.494Z,3.27
2018-09-27T10:26:34.028Z,2.90
2018-09-27T10:29:03.542Z,3.47
2018-09-27T10:31:32.952Z,3.43
2018-09-27T10:34:03.282Z,3.50
2018-09-27T10:36:33.261Z,3.37
2018-09-27T10:39:02.661Z,3.43
2018-09-27T10:41:32.217Z,3.60
2018-09-27T10:44:03.210Z,3.60
2018-09-27T10:46:33.655Z,3.80
2018-09-27T10:49:03.135Z,4.53
2018-09-27T10:51:32.454Z,3.13
2018-09-27T10:54:01.895Z,3.80
2018-09-27T10:56:31.232Z,3.53
2018-09-27T10:59:00.681Z,3.20
2018-09-27T11:01:30.946Z,3.53
2018-09-27T11:04:00.402Z,3.57
2018-09-27T11:06:30.888Z,3.73
2018-09-27T11:09:00.553Z,4.07
2018-09-27T11:11:31.502Z,3.23
2018-09-27T11:14:01.059Z,2.97
2018-09-27T11:16:31.787Z,3.30
2018-09-27T11:19:02.591Z,3.20
2018-09-27T11:21:32.624Z,3.70
2018-09-27T11:24:02.217Z,2.40
2018-09-27T11:26:32.305Z,3.17
2018-09-27T11:29:07.289Z,3.10
2018-09-27T11:31:42.522Z,3.87
2018-09-27T11:34:12.178Z,3.00
2018-09-27T11:36:41.705Z,3.30
2018-09-27T11:39:11.997Z,3.23
2018-09-27T11:41:41.430Z,3.50
2018-09-27T11:44:10.891Z,3.80
2018-09-27T11:46:40.287Z,2.90
2018-09-27T11:49:10.144Z,2.60
2018-09-27T11:51:39.961Z,3.27
2018-09-27T11:54:09.332Z,2.97
2018-09-27T11:56:40.443Z,2.50
2018-09-27T11:59:10.017Z,3.13
2018-09-27T12:01:39.566Z,3.77
2018-09-27T12:04:08.948Z,3.50
2018-09-27T12:06:38.672Z,3.73
2018-09-27T12:09:11.113Z,4.40
2018-09-27T12:11:40.630Z,2.87
2018-09-27T12:14:11.391Z,3.43
2018-09-27T12:16:40.959Z,2.90
2018-09-27T12:19:10.298Z,3.23
2018-09-27T12:21:39.994Z,3.57
2018-09-27T12:24:09.820Z,2.93
2018-09-27T12:26:39.981Z,4.47
2018-09-27T12:29:10.510Z,3.53
2018-09-27T12:31:41.008Z,3.83
2018-09-27T12:34:10.569Z,3.43
2018-09-27T12:36:40.033Z,2.90
2018-09-27T12:39:11.387Z,3.93
2018-09-27T12:41:41.158Z,3.40
2018-09-27T12:44:13.029Z,3.63
2018-09-27T12:46:42.423Z,4.10
2018-09-27T12:49:12.875Z,4.07
2018-09-27T12:51:44.799Z,3.40
2018-09-27T12:54:15.000Z,2.93
2018-09-27T12:56:45.790Z,3.80
2018-09-27T12:59:15.230Z,3.10
2018-09-27T13:01:45.011Z,3.50
2018-09-27T13:04:14.517Z,3.07
2018-09-27T13:06:44.653Z,3.80
2018-09-27T13:09:14.325Z,2.77
2018-09-27T13:11:43.608Z,2.70
2018-09-27T13:14:13.310Z,3.83
2018-09-27T13:16:42.760Z,2.30
2018-09-27T13:19:12.372Z,2.70
2018-09-27T13:21:41.751Z,3.00
2018-09-27T13:24:11.842Z,3.13
2018-09-27T13:26:41.558Z,2.50
2018-09-27T13:29:10.974Z,3.07
2018-09-27T13:31:40.910Z,2.33
2018-09-27T13:34:12.646Z,2.80
2018-09-27T13:36:42.388Z,2.67
2018-09-27T13:39:12.980Z,2.23
2018-09-27T13:41:42.339Z,1.83
2018-09-27T13:44:11.821Z,2.90
2018-09-27T13:46:41.386Z,2.00
2018-09-27T13:49:10.952Z,2.33
2018-09-27T13:51:40.196Z,2.70
2018-09-27T13:54:09.572Z,2.30
2018-09-27T13:56:39.025Z,2.10
2018-09-27T13:59:08.489Z,2.30
2018-09-27T14:01:37.845Z,2.00
2018-09-27T14:04:07.303Z,2.47
2018-09-27T14:06:37.670Z,1.93
2018-09-27T14:09:08.548Z,1.80
2018-09-27T14:11:38.251Z,2.00
2018-09-27T14:14:07.678Z,2.33
2018-09-27T14:16:38.206Z,1.90
2018-09-27T14:19:07.605Z,1.63
2018-09-27T14:21:36.991Z,2.13
2018-09-27T14:24:06.516Z,2.33
2018-09-27T14:26:36.020Z,2.20
2018-09-27T14:29:05.563Z,2.20
2018-09-27T14:31:34.976Z,3.17
2018-09-27T14:34:04.428Z,2.20
2018-09-27T14:36:33.804Z,2.33
2018-09-27T14:39:04.553Z,3.07
2018-09-27T14:41:35.322Z,2.87
2018-09-27T14:44:05.076Z,3.00
2018-09-27T14:46:35.198Z,2.30
2018-09-27T14:49:05.600Z,2.90
2018-09-27T14:51:35.177Z,2.23
2018-09-27T14:54:05.177Z,2.93
2018-09-27T14:56:40.587Z,3.00
2018-09-27T14:59:16.305Z,2.90
2018-09-27T15:01:45.905Z,2.80
2018-09-27T15:04:15.445Z,2.70
2018-09-27T15:06:44.868Z,3.37
2018-09-27T15:09:17.156Z,3.30
2018-09-27T15:11:55.238Z,2.80
2018-09-27T15:14:26.617Z,3.77
2018-09-27T15:16:56.163Z,3.07
2018-09-27T15:19:25.545Z,2.67
2018-09-27T15:21:55.204Z,2.90
2018-09-27T15:24:24.682Z,3.00
2018-09-27T15:26:55.154Z,2.93
2018-09-27T15:29:26.311Z,2.23
2018-09-27T15:31:55.649Z,2.53
2018-09-27T15:34:25.131Z,4.40
2018-09-27T15:36:54.872Z,2.60
2018-09-27T15:39:24.235Z,2.53
2018-09-27T15:41:53.553Z,2.50
2018-09-27T15:44:23.096Z,2.67
2018-09-27T15:46:52.428Z,3.00
2018-09-27T15:49:21.886Z,2.27
2018-09-27T15:51:51.879Z,2.03
2018-09-27T15:54:21.459Z,2.10
2018-09-27T15:56:50.882Z,2.17
2018-09-27T15:59:20.364Z,3.13
2018-09-27T16:01:49.931Z,2.27
2018-09-27T16:04:19.360Z,2.27
2018-09-27T16:06:49.034Z,1.63
2018-09-27T16:09:18.472Z,2.20
2018-09-27T16:11:47.838Z,2.27
2018-09-27T16:14:17.376Z,1.83
2018-09-27T16:16:47.681Z,2.00
2018-09-27T16:19:17.185Z,2.03
2018-09-27T16:21:46.563Z,2.17
2018-09-27T16:24:16.024Z,2.33
2018-09-27T16:26:45.351Z,1.93
2018-09-27T16:29:14.873Z,2.93
2018-09-27T16:31:44.354Z,1.80
2018-09-27T16:34:13.793Z,2.37
2018-09-27T16:36:43.215Z,2.53
2018-09-27T16:39:12.571Z,3.10
2018-09-27T16:41:41.977Z,2.10
2018-09-27T16:44:11.469Z,2.20
2018-09-27T16:46:41.257Z,2.47
2018-09-27T16:49:10.742Z,2.33
2018-09-27T16:51:41.509Z,8.93
2018-09-27T16:54:11.171Z,4.20
2018-09-27T16:56:40.604Z,2.43
2018-09-27T16:59:10.073Z,2.00
2018-09-27T17:01:39.461Z,2.30
2018-09-27T17:04:08.850Z,2.20
2018-09-27T17:06:38.192Z,2.90
2018-09-27T17:09:08.642Z,2.60
2018-09-27T17:11:37.954Z,3.20
2018-09-27T17:14:07.638Z,4.33
2018-09-27T17:16:37.104Z,3.47
2018-09-27T17:19:06.579Z,3.60
2018-09-27T17:21:36.078Z,3.30
2018-09-27T17:24:05.502Z,4.97
2018-09-27T17:26:34.909Z,3.93
2018-09-27T17:29:04.316Z,4.13
2018-09-27T17:31:33.921Z,4.70
2018-09-27T17:34:03.380Z,3.40
2018-09-27T17:36:32.758Z,3.37
2018-09-27T17:39:02.290Z,3.97
2018-09-27T17:41:31.664Z,2.80
2018-09-27T17:44:01.088Z,3.30
2018-09-27T17:46:30.823Z,3.20
2018-09-27T17:49:00.361Z,4.13
2018-09-27T17:51:30.452Z,3.37
2018-09-27T17:53:59.951Z,3.50
2018-09-27T17:56:29.388Z,3.77
2018-09-27T17:58:59.006Z,4.53
2018-09-27T18:01:28.516Z,4.70
2018-09-27T18:04:01.537Z,5.40
2018-09-27T18:06:30.983Z,5.00
2018-09-27T18:09:00.519Z,4.57
2018-09-27T18:11:30.063Z,4.90
2018-09-27T18:13:59.552Z,5.27
2018-09-27T18:16:29.033Z,5.00
2018-09-27T18:18:58.463Z,4.43
2018-09-27T18:21:27.956Z,4.13
2018-09-27T18:23:57.700Z,4.10
2018-09-27T18:26:27.145Z,5.80
2018-09-27T18:28:56.695Z,4.40
2018-09-27T18:31:26.159Z,5.67
2018-09-27T18:33:55.734Z,6.00
2018-09-27T18:36:25.141Z,5.90
2018-09-27T18:38:54.585Z,6.10
2018-09-27T18:41:24.101Z,6.40
2018-09-27T18:43:53.667Z,6.10
2018-09-27T18:46:23.011Z,6.37
2018-09-27T18:48:52.448Z,6.00
2018-09-27T18:51:21.862Z,6.83
2018-09-27T18:53:51.381Z,6.77
2018-09-27T18:56:20.859Z,6.67
2018-09-27T18:58:50.226Z,6.20
2018-09-27T19:01:19.594Z,5.17
2018-09-27T19:03:49.045Z,5.63
2018-09-27T19:06:18.644Z,5.67
2018-09-27T19:08:48.008Z,6.43
2018-09-27T19:11:17.440Z,7.13
2018-09-27T19:13:46.812Z,6.90
2018-09-27T19:16:16.297Z,8.23
2018-09-27T19:18:45.871Z,7.40
2018-09-27T19:21:15.216Z,7.20
2018-09-27T19:23:44.663Z,6.80
2018-09-27T19:26:14.020Z,7.73
2018-09-27T19:28:43.394Z,6.87
2018-09-27T19:31:13.084Z,7.07
2018-09-27T19:33:42.588Z,7.30
2018-09-27T19:36:11.920Z,6.60
2018-09-27T19:38:42.172Z,6.60
2018-09-27T19:41:11.741Z,6.80
2018-09-27T19:43:41.346Z,7.57
2018-09-27T19:46:10.880Z,7.10
2018-09-27T19:48:40.413Z,7.10
2018-09-27T19:51:09.759Z,7.60
2018-09-27T19:53:39.309Z,8.03
2018-09-27T19:56:09.065Z,6.00
2018-09-27T19:58:38.702Z,6.33
2018-09-27T20:01:07.998Z,7.00
2018-09-27T20:03:37.599Z,6.40
2018-09-27T20:06:06.947Z,6.97
2018-09-27T20:08:36.373Z,7.23
2018-09-27T20:11:05.807Z,7.50
2018-09-27T20:13:35.175Z,5.90
2018-09-27T20:16:04.602Z,5.87
2018-09-27T20:18:33.873Z,5.60
2018-09-27T20:21:03.760Z,5.17
2018-09-27T20:23:33.161Z,4.87
2018-09-27T20:26:02.618Z,5.87
2018-09-27T20:28:32.779Z,5.03
2018-09-27T20:31:02.107Z,4.57
2018-09-27T20:33:31.734Z,4.40
2018-09-27T20:36:01.232Z,4.70
2018-09-27T20:38:30.575Z,5.90
2018-09-27T20:40:59.926Z,6.80
2018-09-27T20:43:29.247Z,5.47
2018-09-27T20:45:59.659Z,6.20
2018-09-27T20:48:29.111Z,6.20
2018-09-27T20:50:58.531Z,5.37
2018-09-27T20:53:27.949Z,5.73
2018-09-27T20:55:57.556Z,5.27
2018-09-27T20:58:27.047Z,4.90
2018-09-27T21:00:56.400Z,5.23
2018-09-27T21:03:25.836Z,5.87
2018-09-27T21:05:55.345Z,5.47
2018-09-27T21:08:24.747Z,5.37
2018-09-27T21:10:54.157Z,5.93
2018-09-27T21:13:23.498Z,5.80
2018-09-27T21:15:52.961Z,5.30
2018-09-27T21:18:22.322Z,6.33
2018-09-27T21:20:51.794Z,5.67
2018-09-27T21:23:21.312Z,5.90
2018-09-27T21:25:50.768Z,4.90
2018-09-27T21:28:20.110Z,5.97
2018-09-27T21:30:49.465Z,4.87
2018-09-27T21:33:19.035Z,5.53
2018-09-27T21:35:48.694Z,4.83
2018-09-27T21:38:18.539Z,5.53
2018-09-27T21:40:47.869Z,4.90
2018-09-27T21:43:17.399Z,5.10
2018-09-27T21:45:47.059Z,4.93
2018-09-27T21:48:16.404Z,6.30
2018-09-27T21:50:45.845Z,5.23
2018-09-27T21:53:16.243Z,6.10
2018-09-27T21:55:45.642Z,6.33
2018-09-27T21:58:15.040Z,6.03
2018-09-27T22:00:44.478Z,5.40
2018-09-27T22:03:13.976Z,5.03
2018-09-27T22:05:43.369Z,8.17
2018-09-27T22:08:12.787Z,7.40
2018-09-27T22:10:42.188Z,7.00
2018-09-27T22:13:11.530Z,6.60
2018-09-27T22:15:40.968Z,6.00
2018-09-27T22:18:10.327Z,6.07
2018-09-27T22:20:39.804Z,5.33
2018-09-27T22:23:09.503Z,6.20
2018-09-27T22:25:39.671Z,5.70
2018-09-27T22:28:09.134Z,5.60
2018-09-27T22:30:38.493Z,7.73
2018-09-27T22:33:07.826Z,8.00
2018-09-27T22:35:37.223Z,7.40
2018-09-27T22:38:06.560Z,8.10
2018-09-27T22:40:35.890Z,6.90
2018-09-27T22:43:05.233Z,6.60
2018-09-27T22:45:34.527Z,7.17
2018-09-27T22:48:04.089Z,6.50
2018-09-27T22:50:33.830Z,5.60
2018-09-27T22:53:03.801Z,4.67
2018-09-27T22:55:33.169Z,4.27
2018-09-27T22:58:02.549Z,4.80
2018-09-27T23:00:32.011Z,4.77
2018-09-27T23:03:01.357Z,5.47
2018-09-27T23:05:30.716Z,6.17
2018-09-27T23:08:00.129Z,7.10
2018-09-27T23:10:29.496Z,5.43
2018-09-27T23:12:58.954Z,5.60
2018-09-27T23:15:28.271Z,6.60
2018-09-27T23:17:57.900Z,7.10
2018-09-27T23:20:27.282Z,7.77
2018-09-27T23:22:56.671Z,7.47
2018-09-27T23:25:26.006Z,7.20
2018-09-27T23:27:55.347Z,8.03
2018-09-27T23:30:24.676Z,7.10
2018-09-27T23:32:54.136Z,5.90
2018-09-27T23:35:23.435Z,5.40
2018-09-27T23:37:52.910Z,4.00
2018-09-27T23:40:22.262Z,4.50
2018-09-27T23:42:52.402Z,4.63
2018-09-27T23:45:21.849Z,4.63
2018-09-27T23:47:51.266Z,4.23
2018-09-27T23:50:20.641Z,4.83
2018-09-27T23:52:50.143Z,4.13
2018-09-27T23:55:19.588Z,4.23
2018-09-27T23:57:48.924Z,4.23
